createdAt,value
2023-01-19T04:57:15.631Z,0.80
2023-01-19T04:59:42.472Z,0.70
2023-01-19T05:02:11.437Z,0.47
2023-01-19T05:04:40.035Z,0.70
2023-01-19T05:07:06.528Z,0.60
2023-01-19T05:09:32.981Z,0.80
2023-01-19T05:11:59.512Z,0.60
2023-01-19T05:14:26.015Z,0.75
2023-01-19T05:16:52.555Z,0.60
2023-01-19T05:19:19.069Z,1.10
2023-01-19T05:21:45.557Z,0.67
2023-01-19T05:24:12.057Z,0.70
2023-01-19T05:26:38.570Z,0.90
2023-01-19T05:29:05.143Z,1.00
2023-01-19T05:31:31.703Z,0.80
2023-01-19T05:33:58.299Z,1.00
2023-01-19T05:36:24.934Z,0.80
2023-01-19T05:38:51.517Z,0.90
2023-01-19T05:41:17.984Z,0.90
2023-01-19T05:43:44.534Z,0.77
2023-01-19T05:46:11.737Z,0.73
2023-01-19T05:48:38.441Z,1.10
2023-01-19T05:51:05.293Z,1.25
2023-01-19T05:53:32.227Z,1.00
2023-01-19T05:56:01.699Z,0.90
2023-01-19T05:58:28.810Z,1.00
2023-01-19T06:00:55.442Z,0.80
2023-01-19T06:03:22.118Z,1.10
2023-01-19T06:05:48.611Z,1.10
2023-01-19T06:08:15.065Z,1.02
2023-01-19T06:10:41.534Z,1.00
2023-01-19T06:13:09.774Z,0.98
2023-01-19T06:15:36.342Z,1.02
2023-01-19T06:18:02.879Z,1.00
2023-01-19T06:20:29.396Z,0.73
2023-01-19T06:22:59.359Z,0.90
2023-01-19T06:25:26.106Z,1.05
2023-01-19T06:27:52.604Z,1.02
2023-01-19T06:30:19.396Z,1.00
2023-01-19T06:32:46.002Z,1.20
2023-01-19T06:35:12.611Z,1.00
2023-01-19T06:37:39.224Z,1.13
2023-01-19T06:40:06.753Z,1.67
2023-01-19T06:42:33.241Z,1.38
2023-01-19T06:44:59.848Z,1.48
2023-01-19T06:47:26.341Z,1.80
2023-01-19T06:49:53.166Z,1.85
2023-01-19T06:52:20.604Z,1.83
2023-01-19T06:54:47.437Z,3.03
2023-01-19T06:57:14.699Z,2.42
2023-01-19T06:59:41.623Z,2.47
2023-01-19T07:02:27.061Z,3.22
2023-01-19T07:04:54.664Z,3.40
2023-01-19T07:07:21.163Z,2.90
2023-01-19T07:09:47.959Z,3.42
2023-01-19T07:12:14.675Z,3.33
2023-01-19T07:14:41.201Z,3.90
2023-01-19T07:17:07.832Z,4.07
2023-01-19T07:19:35.343Z,4.50
2023-01-19T07:22:02.607Z,3.35
2023-01-19T07:24:30.647Z,4.27
2023-01-19T07:26:57.193Z,3.88
2023-01-19T07:29:24.678Z,4.00
2023-01-19T07:31:54.508Z,4.60
2023-01-19T07:34:21.616Z,4.30
2023-01-19T07:36:48.807Z,4.37
2023-01-19T07:39:15.370Z,4.90
2023-01-19T07:41:41.892Z,4.60
2023-01-19T07:44:08.872Z,4.88
2023-01-19T07:46:38.139Z,5.05
2023-01-19T07:49:05.065Z,4.63
2023-01-19T07:51:31.905Z,5.63
2023-01-19T07:53:58.610Z,4.00
2023-01-19T07:56:27.710Z,4.32
2023-01-19T07:58:54.248Z,5.93
2023-01-19T08:01:20.848Z,5.57
2023-01-19T08:03:48.395Z,5.82
2023-01-19T08:06:21.751Z,5.75
2023-01-19T08:08:48.446Z,5.00
2023-01-19T08:11:15.431Z,5.55
2023-01-19T08:13:42.617Z,5.17
2023-01-19T08:16:09.236Z,5.15
2023-01-19T08:18:35.798Z,4.93
2023-01-19T08:21:02.397Z,6.32
2023-01-19T08:23:29.226Z,6.18
2023-01-19T08:25:55.758Z,5.80
2023-01-19T08:28:22.757Z,4.95
2023-01-19T08:30:54.529Z,5.20
2023-01-19T08:33:25.301Z,5.30
2023-01-19T08:35:53.430Z,5.97
2023-01-19T08:38:20.405Z,4.77
2023-01-19T08:40:47.006Z,6.45
2023-01-19T08:43:15.381Z,6.85
2023-01-19T08:45:51.307Z,6.38
2023-01-19T08:48:20.135Z,7.65
2023-01-19T08:50:49.915Z,8.23
2023-01-19T08:53:16.593Z,8.15
2023-01-19T08:55:44.756Z,9.10
2023-01-19T08:58:11.259Z,8.50
2023-01-19T09:00:39.250Z,8.82
2023-01-19T09:03:07.485Z,8.80
2023-01-19T09:05:38.752Z,9.27
2023-01-19T09:08:08.296Z,9.93
2023-01-19T09:10:38.085Z,9.73
2023-01-19T09:13:10.839Z,9.30
2023-01-19T09:15:38.345Z,10.70
2023-01-19T09:18:07.218Z,9.50
2023-01-19T09:20:36.140Z,10.18
2023-01-19T09:23:03.248Z,9.95
2023-01-19T09:25:29.904Z,10.57
2023-01-19T09:27:56.512Z,9.40
2023-01-19T09:30:23.082Z,9.95
2023-01-19T09:32:49.670Z,8.73
2023-01-19T09:35:16.522Z,10.13
2023-01-19T09:37:46.532Z,10.32
2023-01-19T09:40:13.466Z,8.40
2023-01-19T09:42:57.582Z,8.93
2023-01-19T09:45:33.255Z,9.15
2023-01-19T09:48:01.084Z,7.30
2023-01-19T09:50:32.320Z,9.52
2023-01-19T09:53:58.843Z,10.10
2023-01-19T09:56:27.583Z,10.25
2023-01-19T09:58:54.093Z,8.60
2023-01-19T10:01:29.803Z,8.98
2023-01-19T10:04:12.111Z,9.85
2023-01-19T10:06:38.669Z,9.43
2023-01-19T10:09:41.203Z,9.63
2023-01-19T10:12:51.840Z,7.90
2023-01-19T10:15:23.369Z,7.70
2023-01-19T10:18:13.383Z,8.40
2023-01-19T10:20:51.144Z,6.47
2023-01-19T10:23:33.399Z,7.53
2023-01-19T10:26:01.512Z,7.47
2023-01-19T10:28:28.210Z,8.10
2023-01-19T10:30:55.968Z,7.50
2023-01-19T10:33:22.784Z,7.87
2023-01-19T10:35:50.477Z,8.50
2023-01-19T10:38:22.235Z,8.43
2023-01-19T10:41:11.767Z,8.77
2023-01-19T10:43:43.302Z,7.65
2023-01-19T10:46:28.145Z,9.13
2023-01-19T10:48:55.348Z,8.60
2023-01-19T10:51:22.073Z,9.07
2023-01-19T10:54:00.297Z,8.23
2023-01-19T10:56:35.451Z,8.05
2023-01-19T10:59:05.032Z,8.13
2023-01-19T11:01:36.010Z,8.35
2023-01-19T11:04:28.769Z,8.18
2023-01-19T11:07:13.961Z,8.43
2023-01-19T11:09:40.542Z,7.85
2023-01-19T11:12:16.932Z,7.73
2023-01-19T11:14:43.485Z,7.50
2023-01-19T11:17:22.843Z,7.40
2023-01-19T11:19:58.592Z,6.63
2023-01-19T11:22:30.712Z,7.97
2023-01-19T11:24:58.802Z,7.67
2023-01-19T11:27:25.890Z,7.60
2023-01-19T11:30:10.486Z,7.97
2023-01-19T11:32:37.507Z,8.88
2023-01-19T11:35:33.923Z,8.45
2023-01-19T11:38:07.487Z,8.20
2023-01-19T11:40:34.946Z,7.72
2023-01-19T11:43:02.022Z,9.63
2023-01-19T11:45:28.822Z,7.32
2023-01-19T11:47:57.121Z,9.00
2023-01-19T11:50:32.185Z,8.70
2023-01-19T11:53:06.059Z,15.05
2023-01-19T11:55:51.012Z,8.40
2023-01-19T11:58:18.805Z,9.02
2023-01-19T12:01:05.337Z,8.90
2023-01-19T12:03:41.182Z,7.83
2023-01-19T12:06:19.332Z,8.65
2023-01-19T12:08:56.130Z,7.57
2023-01-19T12:11:31.547Z,8.55
2023-01-19T12:13:58.094Z,9.30
2023-01-19T12:16:30.173Z,9.00
2023-01-19T12:19:00.801Z,8.95
2023-01-19T12:21:27.709Z,9.13
2023-01-19T12:24:16.457Z,7.68
2023-01-19T12:26:51.577Z,7.28
2023-01-19T12:29:21.813Z,8.03
2023-01-19T12:32:13.146Z,8.55
2023-01-19T12:34:42.537Z,8.98
2023-01-19T12:37:29.015Z,8.23
2023-01-19T12:39:57.439Z,7.75
2023-01-19T12:42:24.672Z,7.93
2023-01-19T12:45:09.167Z,8.48
2023-01-19T12:47:36.631Z,7.25
2023-01-19T12:50:14.039Z,8.30
2023-01-19T12:52:47.951Z,7.35
2023-01-19T12:55:14.489Z,7.90
2023-01-19T12:57:55.013Z,7.57
2023-01-19T13:00:21.478Z,7.93
2023-01-19T13:03:01.949Z,7.30
2023-01-19T13:05:33.703Z,8.40
2023-01-19T13:08:03.048Z,8.77
2023-01-19T13:10:54.703Z,7.85
2023-01-19T13:13:22.279Z,8.27
2023-01-19T13:15:48.973Z,8.50
2023-01-19T13:18:35.644Z,8.20
2023-01-19T13:21:05.064Z,8.63
2023-01-19T13:23:50.058Z,9.20
2023-01-19T13:26:21.659Z,7.35
2023-01-19T13:29:02.384Z,7.90
2023-01-19T13:31:34.991Z,8.35
2023-01-19T13:34:02.333Z,8.33
2023-01-19T13:36:34.752Z,8.20
2023-01-19T13:39:06.995Z,8.90
2023-01-19T13:41:38.348Z,8.02
2023-01-19T13:44:23.703Z,7.80
2023-01-19T13:46:51.962Z,8.43
2023-01-19T13:49:28.908Z,8.32
2023-01-19T13:52:14.488Z,8.38
2023-01-19T13:54:48.905Z,9.55
2023-01-19T13:57:25.809Z,8.70
2023-01-19T14:00:14.740Z,8.23
2023-01-19T14:03:01.934Z,8.93
2023-01-19T14:05:38.102Z,8.43
2023-01-19T14:08:13.804Z,9.65
2023-01-19T14:11:12.963Z,9.20
2023-01-19T14:13:44.903Z,6.97
2023-01-19T14:16:17.078Z,8.50
2023-01-19T14:18:43.812Z,8.88
2023-01-19T14:21:15.275Z,8.23
2023-01-19T14:23:48.226Z,9.27
2023-01-19T14:26:40.219Z,8.33
2023-01-19T14:29:09.863Z,9.10
2023-01-19T14:31:46.165Z,8.98
2023-01-19T14:34:35.967Z,8.77
2023-01-19T14:37:04.251Z,9.25
2023-01-19T14:39:33.230Z,9.37
2023-01-19T14:42:01.447Z,9.77
2023-01-19T14:44:33.991Z,8.82
2023-01-19T14:47:01.251Z,9.93
2023-01-19T14:49:30.706Z,8.25
2023-01-19T14:51:57.390Z,11.10
2023-01-19T14:54:50.745Z,10.50
2023-01-19T14:57:17.248Z,9.55
2023-01-19T14:59:48.384Z,12.75
2023-01-19T15:02:15.467Z,9.88
2023-01-19T15:04:42.002Z,9.10
2023-01-19T15:07:17.263Z,10.70
2023-01-19T15:09:44.270Z,11.55
2023-01-19T15:12:14.818Z,10.32
2023-01-19T15:14:42.584Z,9.80
2023-01-19T15:17:17.474Z,10.50
2023-01-19T15:19:44.034Z,10.18
2023-01-19T15:22:12.674Z,11.93
2023-01-19T15:24:40.897Z,11.23
2023-01-19T15:27:13.406Z,12.13
2023-01-19T15:29:40.393Z,11.30
2023-01-19T15:32:12.156Z,10.90
2023-01-19T15:34:38.752Z,9.68
2023-01-19T15:37:05.268Z,10.60
2023-01-19T15:39:32.341Z,11.77
2023-01-19T15:41:59.394Z,11.83
2023-01-19T15:44:26.086Z,11.40
2023-01-19T15:46:54.604Z,11.68
2023-01-19T15:49:21.320Z,13.00
2023-01-19T15:51:47.857Z,10.85
2023-01-19T15:54:19.603Z,13.27
2023-01-19T15:56:46.126Z,12.52
2023-01-19T15:59:12.612Z,12.60
2023-01-19T16:01:39.964Z,11.70
2023-01-19T16:04:07.447Z,12.73
2023-01-19T16:06:34.187Z,14.20
2023-01-19T16:09:01.561Z,12.52
2023-01-19T16:11:30.222Z,13.10
2023-01-19T16:13:57.371Z,12.55
2023-01-19T16:16:24.881Z,11.55
2023-01-19T16:18:51.758Z,13.70
2023-01-19T16:21:18.465Z,10.18
2023-01-19T16:23:45.006Z,13.23
2023-01-19T16:26:24.922Z,14.23
2023-01-19T16:28:51.426Z,10.40
2023-01-19T16:31:18.035Z,11.77
2023-01-19T16:33:45.339Z,11.73
2023-01-19T16:36:25.306Z,13.10
2023-01-19T16:38:52.921Z,11.25
2023-01-19T16:41:20.307Z,11.60
2023-01-19T16:43:51.869Z,10.13
2023-01-19T16:46:21.207Z,10.88
2023-01-19T16:48:47.780Z,11.35
2023-01-19T16:51:14.431Z,10.68
2023-01-19T16:53:41.072Z,12.65
2023-01-19T16:56:13.349Z,11.77
2023-01-19T16:58:40.878Z,11.05
2023-01-19T17:01:12.947Z,12.18
2023-01-19T17:03:40.130Z,11.30
2023-01-19T17:06:08.205Z,10.15
2023-01-19T17:08:35.653Z,9.20
2023-01-19T17:11:08.984Z,10.23
2023-01-19T17:13:35.471Z,10.38
2023-01-19T17:16:02.639Z,11.27
2023-01-19T17:18:32.670Z,12.38
2023-01-19T17:21:07.072Z,11.60
2023-01-19T17:23:34.927Z,12.55
2023-01-19T17:26:01.547Z,10.52
2023-01-19T17:28:28.237Z,10.93
2023-01-19T17:30:54.847Z,10.75
2023-01-19T17:33:23.566Z,12.33
2023-01-19T17:35:50.417Z,11.50
2023-01-19T17:38:17.127Z,10.73
2023-01-19T17:40:43.596Z,10.82
2023-01-19T17:43:10.054Z,9.80
2023-01-19T17:45:37.282Z,10.20
2023-01-19T17:48:04.963Z,11.77
2023-01-19T17:50:37.124Z,10.40
2023-01-19T17:53:03.574Z,11.10
2023-01-19T17:55:33.126Z,11.95
2023-01-19T17:58:00.414Z,10.60
2023-01-19T18:00:27.473Z,9.32
2023-01-19T18:02:54.292Z,11.05
2023-01-19T18:05:20.895Z,11.63
2023-01-19T18:07:47.822Z,9.30
2023-01-19T18:10:14.624Z,9.43
2023-01-19T18:12:41.338Z,9.68
2023-01-19T18:15:08.969Z,10.68
2023-01-19T18:17:35.503Z,9.40
2023-01-19T18:20:02.333Z,10.38
2023-01-19T18:22:28.829Z,8.97
2023-01-19T18:24:55.608Z,9.85
2023-01-19T18:27:22.846Z,9.40
2023-01-19T18:29:49.343Z,9.07
2023-01-19T18:32:15.922Z,8.68
2023-01-19T18:34:42.432Z,8.87
2023-01-19T18:37:09.008Z,7.60
2023-01-19T18:39:35.644Z,8.80
2023-01-19T18:42:02.197Z,9.52
2023-01-19T18:44:29.739Z,8.82
2023-01-19T18:46:56.773Z,8.77
2023-01-19T18:49:23.331Z,9.77
2023-01-19T18:51:49.821Z,10.60
2023-01-19T18:54:17.473Z,8.43
2023-01-19T18:56:44.215Z,10.32
2023-01-19T18:59:10.850Z,8.90
2023-01-19T19:01:37.508Z,9.25
2023-01-19T19:04:04.270Z,9.07
2023-01-19T19:06:32.835Z,9.98
2023-01-19T19:08:59.682Z,10.10
2023-01-19T19:11:27.716Z,10.70
2023-01-19T19:13:57.288Z,10.73
2023-01-19T19:16:24.067Z,10.15
2023-01-19T19:18:50.799Z,8.73
2023-01-19T19:21:18.817Z,9.98
2023-01-19T19:23:52.996Z,9.70
2023-01-19T19:26:19.811Z,8.90
2023-01-19T19:28:47.388Z,8.93
2023-01-19T19:31:18.031Z,9.82
2023-01-19T19:33:44.640Z,10.20
2023-01-19T19:36:12.588Z,9.77
2023-01-19T19:38:41.227Z,8.85
2023-01-19T19:41:09.358Z,8.90
2023-01-19T19:43:36.405Z,9.68
2023-01-19T19:46:05.827Z,10.57
2023-01-19T19:48:33.181Z,8.67
2023-01-19T19:51:18.081Z,10.13
2023-01-19T19:53:46.025Z,7.70
2023-01-19T19:56:13.233Z,9.85
2023-01-19T19:58:41.846Z,9.40
2023-01-19T20:01:17.221Z,8.87
2023-01-19T20:03:43.867Z,8.02
2023-01-19T20:06:13.083Z,8.75
2023-01-19T20:08:39.829Z,9.05
2023-01-19T20:11:14.578Z,8.95
2023-01-19T20:13:42.368Z,8.67
2023-01-19T20:16:11.650Z,9.13
2023-01-19T20:18:40.005Z,9.15
2023-01-19T20:21:34.139Z,9.85
2023-01-19T20:24:02.652Z,9.30
2023-01-19T20:26:34.227Z,9.50
2023-01-19T20:29:03.564Z,8.88
2023-01-19T20:31:34.247Z,9.38
2023-01-19T20:34:04.361Z,9.45
2023-01-19T20:36:31.136Z,10.05
2023-01-19T20:38:58.542Z,9.10
2023-01-19T20:41:25.590Z,8.23
2023-01-19T20:43:52.292Z,9.38
2023-01-19T20:46:19.007Z,9.73
2023-01-19T20:48:50.690Z,8.90
2023-01-19T20:51:18.813Z,9.23
2023-01-19T20:53:45.565Z,8.70
2023-01-19T20:56:14.103Z,9.35
2023-01-19T20:58:40.857Z,7.70
2023-01-19T21:01:16.705Z,8.05
2023-01-19T21:03:43.371Z,6.90
